sensor_id;sensor_type;location;lat;lon;timestamp;P1;durP1;ratioP1;P2;durP2;ratioP2
79261;SDS011;68699;48.220;16.358;2024-02-16T00:00:17;14.97;;;12.63;;
79261;SDS011;68699;48.220;16.358;2024-02-16T00:02:44;14.73;;;12.40;;
79261;SDS011;68699;48.220;16.358;2024-02-16T00:05:11;14.03;;;12.17;;
79261;SDS011;68699;48.220;16.358;2024-02-16T00:07:38;14.43;;;12.40;;
79261;SDS011;68699;48.220;16.358;2024-02-16T00:10:04;13.73;;;11.87;;
79261;SDS011;68699;48.220;16.358;2024-02-16T00:12:31;14.37;;;12.70;;
79261;SDS011;68699;48.220;16.358;2024-02-16T00:14:58;15.00;;;12.30;;
79261;SDS011;68699;48.220;16.358;2024-02-16T00:17:24;16.07;;;12.70;;
79261;SDS011;68699;48.220;16.358;2024-02-16T00:19:54;13.97;;;12.37;;
79261;SDS011;68699;48.220;16.358;2024-02-16T00:22:20;13.63;;;12.20;;
79261;SDS011;68699;48.220;16.358;2024-02-16T00:24:46;13.47;;;11.90;;
79261;SDS011;68699;48.220;16.358;2024-02-16T00:27:13;14.70;;;12.83;;
79261;SDS011;68699;48.220;16.358;2024-02-16T00:29:39;13.67;;;12.27;;
79261;SDS011;68699;48.220;16.358;2024-02-16T00:32:06;13.90;;;12.10;;
79261;SDS011;68699;48.220;16.358;2024-02-16T00:34:33;15.60;;;12.87;;
79261;SDS011;68699;48.220;16.358;2024-02-16T00:36:59;13.50;;;12.10;;
79261;SDS011;68699;48.220;16.358;2024-02-16T00:39:26;14.57;;;12.63;;
79261;SDS011;68699;48.220;16.358;2024-02-16T00:41:53;14.03;;;12.37;;
79261;SDS011;68699;48.220;16.358;2024-02-16T00:44:20;15.03;;;12.30;;
79261;SDS011;68699;48.220;16.358;2024-02-16T00:46:46;15.30;;;12.80;;
79261;SDS011;68699;48.220;16.358;2024-02-16T00:49:12;14.40;;;12.57;;
79261;SDS011;68699;48.220;16.358;2024-02-16T00:51:39;15.57;;;13.07;;
79261;SDS011;68699;48.220;16.358;2024-02-16T00:54:05;14.00;;;12.13;;
79261;SDS011;68699;48.220;16.358;2024-02-16T00:56:35;15.07;;;12.57;;
79261;SDS011;68699;48.220;16.358;2024-02-16T00:59:01;14.60;;;12.40;;
79261;SDS011;68699;48.220;16.358;2024-02-16T01:01:28;15.67;;;13.03;;
79261;SDS011;68699;48.220;16.358;2024-02-16T01:03:54;14.30;;;12.10;;
79261;SDS011;68699;48.220;16.358;2024-02-16T01:06:21;15.50;;;12.90;;
79261;SDS011;68699;48.220;16.358;2024-02-16T01:08:47;15.53;;;13.20;;
79261;SDS011;68699;48.220;16.358;2024-02-16T01:11:13;14.13;;;12.63;;
79261;SDS011;68699;48.220;16.358;2024-02-16T01:13:39;13.03;;;11.60;;
79261;SDS011;68699;48.220;16.358;2024-02-16T01:16:06;14.47;;;12.97;;
79261;SDS011;68699;48.220;16.358;2024-02-16T01:18:32;15.00;;;13.13;;
79261;SDS011;68699;48.220;16.358;2024-02-16T01:21:01;13.97;;;12.47;;
79261;SDS011;68699;48.220;16.358;2024-02-16T01:23:28;13.70;;;12.30;;
79261;SDS011;68699;48.220;16.358;2024-02-16T01:25:54;14.70;;;12.07;;
79261;SDS011;68699;48.220;16.358;2024-02-16T01:28:21;13.63;;;12.23;;
79261;SDS011;68699;48.220;16.358;2024-02-16T01:30:48;13.80;;;12.30;;
79261;SDS011;68699;48.220;16.358;2024-02-16T01:33:14;13.63;;;12.13;;
79261;SDS011;68699;48.220;16.358;2024-02-16T01:35:40;14.63;;;12.37;;
79261;SDS011;68699;48.220;16.358;2024-02-16T01:38:06;14.13;;;12.63;;
79261;SDS011;68699;48.220;16.358;2024-02-16T01:40:33;14.73;;;12.23;;
79261;SDS011;68699;48.220;16.358;2024-02-16T01:42:59;13.43;;;12.03;;
79261;SDS011;68699;48.220;16.358;2024-02-16T01:45:25;14.53;;;12.53;;
79261;SDS011;68699;48.220;16.358;2024-02-16T01:47:51;14.70;;;12.47;;
79261;SDS011;68699;48.220;16.358;2024-02-16T01:50:18;15.03;;;12.33;;
79261;SDS011;68699;48.220;16.358;2024-02-16T01:52:46;13.77;;;11.67;;
79261;SDS011;68699;48.220;16.358;2024-02-16T01:55:13;13.17;;;11.83;;
79261;SDS011;68699;48.220;16.358;2024-02-16T01:57:39;12.87;;;11.57;;
79261;SDS011;68699;48.220;16.358;2024-02-16T02:00:06;12.67;;;11.37;;
79261;SDS011;68699;48.220;16.358;2024-02-16T02:02:33;13.60;;;11.30;;
79261;SDS011;68699;48.220;16.358;2024-02-16T02:04:59;14.17;;;11.43;;
79261;SDS011;68699;48.220;16.358;2024-02-16T02:07:26;14.20;;;11.57;;
79261;SDS011;68699;48.220;16.358;2024-02-16T02:09:52;12.70;;;11.37;;
79261;SDS011;68699;48.220;16.358;2024-02-16T02:12:19;12.53;;;11.23;;
79261;SDS011;68699;48.220;16.358;2024-02-16T02:14:45;12.40;;;11.10;;
79261;SDS011;68699;48.220;16.358;2024-02-16T02:17:14;13.20;;;10.60;;
79261;SDS011;68699;48.220;16.358;2024-02-16T02:19:41;12.10;;;10.80;;
79261;SDS011;68699;48.220;16.358;2024-02-16T02:22:18;11.83;;;10.53;;
79261;SDS011;68699;48.220;16.358;2024-02-16T02:24:45;12.73;;;10.93;;
79261;SDS011;68699;48.220;16.358;2024-02-16T02:27:12;12.07;;;10.57;;
79261;SDS011;68699;48.220;16.358;2024-02-16T02:29:38;13.07;;;10.20;;
79261;SDS011;68699;48.220;16.358;2024-02-16T02:32:05;11.87;;;10.67;;
79261;SDS011;68699;48.220;16.358;2024-02-16T02:34:31;12.80;;;11.03;;
79261;SDS011;68699;48.220;16.358;2024-02-16T02:36:57;12.63;;;10.57;;
79261;SDS011;68699;48.220;16.358;2024-02-16T02:39:24;12.10;;;10.60;;
79261;SDS011;68699;48.220;16.358;2024-02-16T02:41:50;11.33;;;10.23;;
79261;SDS011;68699;48.220;16.358;2024-02-16T02:44:16;12.00;;;10.80;;
79261;SDS011;68699;48.220;16.358;2024-02-16T02:46:42;14.50;;;11.20;;
79261;SDS011;68699;48.220;16.358;2024-02-16T02:49:09;13.67;;;11.10;;
79261;SDS011;68699;48.220;16.358;2024-02-16T02:51:35;11.60;;;10.40;;
79261;SDS011;68699;48.220;16.358;2024-02-16T02:54:01;15.30;;;10.90;;
79261;SDS011;68699;48.220;16.358;2024-02-16T02:56:27;11.80;;;10.47;;
79261;SDS011;68699;48.220;16.358;2024-02-16T02:58:53;13.13;;;10.50;;
79261;SDS011;68699;48.220;16.358;2024-02-16T03:01:20;11.83;;;10.63;;
79261;SDS011;68699;48.220;16.358;2024-02-16T03:03:47;12.00;;;9.70;;
79261;SDS011;68699;48.220;16.358;2024-02-16T03:06:17;11.43;;;10.23;;
79261;SDS011;68699;48.220;16.358;2024-02-16T03:08:43;12.13;;;10.07;;
79261;SDS011;68699;48.220;16.358;2024-02-16T03:11:10;12.60;;;10.97;;
79261;SDS011;68699;48.220;16.358;2024-02-16T03:13:36;12.77;;;10.67;;
79261;SDS011;68699;48.220;16.358;2024-02-16T03:16:03;11.60;;;10.03;;
79261;SDS011;68699;48.220;16.358;2024-02-16T03:18:29;11.00;;;9.70;;
79261;SDS011;68699;48.220;16.358;2024-02-16T03:20:56;12.77;;;10.80;;
79261;SDS011;68699;48.220;16.358;2024-02-16T03:23:22;11.87;;;10.67;;
79261;SDS011;68699;48.220;16.358;2024-02-16T03:25:49;12.70;;;10.50;;
79261;SDS011;68699;48.220;16.358;2024-02-16T03:28:15;12.20;;;10.53;;
79261;SDS011;68699;48.220;16.358;2024-02-16T03:30:41;12.30;;;11.10;;
79261;SDS011;68699;48.220;16.358;2024-02-16T03:33:08;12.07;;;10.23;;
79261;SDS011;68699;48.220;16.358;2024-02-16T03:35:35;11.83;;;10.47;;
79261;SDS011;68699;48.220;16.358;2024-02-16T03:38:01;12.53;;;10.73;;
79261;SDS011;68699;48.220;16.358;2024-02-16T03:40:28;12.67;;;11.20;;
79261;SDS011;68699;48.220;16.358;2024-02-16T03:42:54;11.20;;;9.90;;
79261;SDS011;68699;48.220;16.358;2024-02-16T03:45:20;11.63;;;10.00;;
79261;SDS011;68699;48.220;16.358;2024-02-16T03:47:46;11.83;;;10.43;;
79261;SDS011;68699;48.220;16.358;2024-02-16T03:50:18;11.97;;;10.33;;
79261;SDS011;68699;48.220;16.358;2024-02-16T03:52:44;12.97;;;10.80;;
79261;SDS011;68699;48.220;16.358;2024-02-16T03:55:10;11.77;;;10.47;;
79261;SDS011;68699;48.220;16.358;2024-02-16T03:57:39;11.57;;;10.30;;
79261;SDS011;68699;48.220;16.358;2024-02-16T04:00:06;13.27;;;10.67;;
79261;SDS011;68699;48.220;16.358;2024-02-16T04:02:33;12.03;;;10.57;;
79261;SDS011;68699;48.220;16.358;2024-02-16T04:05:01;12.80;;;10.83;;
79261;SDS011;68699;48.220;16.358;2024-02-16T04:07:28;11.50;;;10.07;;
79261;SDS011;68699;48.220;16.358;2024-02-16T04:09:54;12.70;;;10.47;;
79261;SDS011;68699;48.220;16.358;2024-02-16T04:12:21;12.50;;;10.60;;
79261;SDS011;68699;48.220;16.358;2024-02-16T04:14:47;11.27;;;10.00;;
79261;SDS011;68699;48.220;16.358;2024-02-16T04:17:14;12.07;;;10.77;;
79261;SDS011;68699;48.220;16.358;2024-02-16T04:19:40;11.10;;;10.00;;
79261;SDS011;68699;48.220;16.358;2024-02-16T04:22:06;11.97;;;10.17;;
79261;SDS011;68699;48.220;16.358;2024-02-16T04:24:32;13.83;;;10.60;;
79261;SDS011;68699;48.220;16.358;2024-02-16T04:26:58;13.93;;;10.43;;
79261;SDS011;68699;48.220;16.358;2024-02-16T04:29:24;11.83;;;10.27;;
79261;SDS011;68699;48.220;16.358;2024-02-16T04:31:51;11.33;;;9.77;;
79261;SDS011;68699;48.220;16.358;2024-02-16T04:34:17;11.30;;;10.10;;
79261;SDS011;68699;48.220;16.358;2024-02-16T04:36:43;12.60;;;10.30;;
79261;SDS011;68699;48.220;16.358;2024-02-16T04:39:10;11.20;;;10.00;;
79261;SDS011;68699;48.220;16.358;2024-02-16T04:41:37;11.83;;;10.30;;
79261;SDS011;68699;48.220;16.358;2024-02-16T04:44:03;11.57;;;10.40;;
79261;SDS011;68699;48.220;16.358;2024-02-16T04:46:29;11.50;;;10.23;;
79261;SDS011;68699;48.220;16.358;2024-02-16T04:48:55;11.73;;;10.43;;
79261;SDS011;68699;48.220;16.358;2024-02-16T04:51:22;11.57;;;10.30;;
79261;SDS011;68699;48.220;16.358;2024-02-16T04:53:48;12.03;;;10.37;;
79261;SDS011;68699;48.220;16.358;2024-02-16T04:56:14;11.40;;;9.80;;
79261;SDS011;68699;48.220;16.358;2024-02-16T04:58:41;13.17;;;10.13;;
79261;SDS011;68699;48.220;16.358;2024-02-16T05:01:07;12.47;;;10.53;;
79261;SDS011;68699;48.220;16.358;2024-02-16T05:03:33;11.33;;;10.07;;
79261;SDS011;68699;48.220;16.358;2024-02-16T05:06:00;11.60;;;10.17;;
79261;SDS011;68699;48.220;16.358;2024-02-16T05:08:26;12.33;;;10.00;;
79261;SDS011;68699;48.220;16.358;2024-02-16T05:10:53;10.30;;;9.20;;
79261;SDS011;68699;48.220;16.358;2024-02-16T05:13:19;11.93;;;9.80;;
79261;SDS011;68699;48.220;16.358;2024-02-16T05:15:45;11.53;;;9.70;;
79261;SDS011;68699;48.220;16.358;2024-02-16T05:18:13;10.93;;;9.30;;
79261;SDS011;68699;48.220;16.358;2024-02-16T05:20:40;11.73;;;9.97;;
79261;SDS011;68699;48.220;16.358;2024-02-16T05:23:07;12.60;;;10.33;;
79261;SDS011;68699;48.220;16.358;2024-02-16T05:25:33;13.70;;;10.63;;
79261;SDS011;68699;48.220;16.358;2024-02-16T05:27:59;12.43;;;10.40;;
79261;SDS011;68699;48.220;16.358;2024-02-16T05:30:26;12.10;;;9.90;;
79261;SDS011;68699;48.220;16.358;2024-02-16T05:32:53;10.77;;;9.67;;
79261;SDS011;68699;48.220;16.358;2024-02-16T05:35:23;12.13;;;10.07;;
79261;SDS011;68699;48.220;16.358;2024-02-16T05:37:52;12.93;;;10.20;;
79261;SDS011;68699;48.220;16.358;2024-02-16T05:40:20;12.97;;;10.50;;
79261;SDS011;68699;48.220;16.358;2024-02-16T05:42:58;10.60;;;9.60;;
79261;SDS011;68699;48.220;16.358;2024-02-16T05:45:25;10.70;;;9.60;;
79261;SDS011;68699;48.220;16.358;2024-02-16T05:47:54;10.63;;;9.53;;
79261;SDS011;68699;48.220;16.358;2024-02-16T05:50:20;12.03;;;9.77;;
79261;SDS011;68699;48.220;16.358;2024-02-16T05:52:47;13.07;;;10.13;;
79261;SDS011;68699;48.220;16.358;2024-02-16T05:55:15;10.90;;;9.70;;
79261;SDS011;68699;48.220;16.358;2024-02-16T05:57:43;12.57;;;10.00;;
79261;SDS011;68699;48.220;16.358;2024-02-16T06:00:10;11.30;;;9.17;;
79261;SDS011;68699;48.220;16.358;2024-02-16T06:02:38;10.93;;;9.43;;
79261;SDS011;68699;48.220;16.358;2024-02-16T06:05:04;12.70;;;10.30;;
79261;SDS011;68699;48.220;16.358;2024-02-16T06:07:31;14.40;;;9.77;;
79261;SDS011;68699;48.220;16.358;2024-02-16T06:09:57;10.73;;;9.60;;
79261;SDS011;68699;48.220;16.358;2024-02-16T06:12:23;10.93;;;9.30;;
79261;SDS011;68699;48.220;16.358;2024-02-16T06:14:50;10.60;;;9.50;;
79261;SDS011;68699;48.220;16.358;2024-02-16T06:17:18;10.50;;;9.10;;
79261;SDS011;68699;48.220;16.358;2024-02-16T06:19:44;11.50;;;10.30;;
79261;SDS011;68699;48.220;16.358;2024-02-16T06:22:10;11.33;;;9.47;;
79261;SDS011;68699;48.220;16.358;2024-02-16T06:24:37;10.90;;;9.17;;
79261;SDS011;68699;48.220;16.358;2024-02-16T06:27:03;11.37;;;9.80;;
79261;SDS011;68699;48.220;16.358;2024-02-16T06:29:29;12.07;;;10.17;;
79261;SDS011;68699;48.220;16.358;2024-02-16T06:31:56;10.47;;;9.43;;
79261;SDS011;68699;48.220;16.358;2024-02-16T06:34:22;10.83;;;9.30;;
79261;SDS011;68699;48.220;16.358;2024-02-16T06:36:48;10.27;;;9.07;;
79261;SDS011;68699;48.220;16.358;2024-02-16T06:39:15;11.50;;;9.50;;
79261;SDS011;68699;48.220;16.358;2024-02-16T06:41:44;11.20;;;9.50;;
79261;SDS011;68699;48.220;16.358;2024-02-16T06:44:11;10.57;;;9.07;;
79261;SDS011;68699;48.220;16.358;2024-02-16T06:46:37;13.70;;;9.73;;
79261;SDS011;68699;48.220;16.358;2024-02-16T06:49:04;10.43;;;8.70;;
79261;SDS011;68699;48.220;16.358;2024-02-16T06:51:30;9.93;;;8.90;;
79261;SDS011;68699;48.220;16.358;2024-02-16T06:53:56;10.80;;;9.57;;
79261;SDS011;68699;48.220;16.358;2024-02-16T06:56:22;11.80;;;9.47;;
79261;SDS011;68699;48.220;16.358;2024-02-16T06:58:49;9.53;;;8.60;;
79261;SDS011;68699;48.220;16.358;2024-02-16T07:01:15;10.43;;;9.40;;
79261;SDS011;68699;48.220;16.358;2024-02-16T07:03:43;10.33;;;9.10;;
79261;SDS011;68699;48.220;16.358;2024-02-16T07:06:10;10.17;;;8.80;;
79261;SDS011;68699;48.220;16.358;2024-02-16T07:08:41;10.67;;;9.17;;
79261;SDS011;68699;48.220;16.358;2024-02-16T07:11:07;10.40;;;9.23;;
79261;SDS011;68699;48.220;16.358;2024-02-16T07:13:45;9.97;;;8.97;;
79261;SDS011;68699;48.220;16.358;2024-02-16T07:16:11;12.33;;;9.17;;
79261;SDS011;68699;48.220;16.358;2024-02-16T07:18:37;9.97;;;8.10;;
79261;SDS011;68699;48.220;16.358;2024-02-16T07:21:04;13.57;;;9.23;;
79261;SDS011;68699;48.220;16.358;2024-02-16T07:23:30;10.50;;;9.40;;
79261;SDS011;68699;48.220;16.358;2024-02-16T07:25:56;9.90;;;8.63;;
79261;SDS011;68699;48.220;16.358;2024-02-16T07:28:23;10.00;;;8.37;;
79261;SDS011;68699;48.220;16.358;2024-02-16T07:30:50;12.23;;;8.93;;
79261;SDS011;68699;48.220;16.358;2024-02-16T07:33:16;8.87;;;7.90;;
79261;SDS011;68699;48.220;16.358;2024-02-16T07:35:42;9.00;;;7.73;;
79261;SDS011;68699;48.220;16.358;2024-02-16T07:38:09;9.67;;;8.30;;
79261;SDS011;68699;48.220;16.358;2024-02-16T07:40:35;11.13;;;8.57;;
79261;SDS011;68699;48.220;16.358;2024-02-16T07:43:02;9.67;;;8.37;;
79261;SDS011;68699;48.220;16.358;2024-02-16T07:45:29;10.83;;;8.47;;
79261;SDS011;68699;48.220;16.358;2024-02-16T07:47:56;9.93;;;8.07;;
79261;SDS011;68699;48.220;16.358;2024-02-16T07:50:22;9.63;;;8.03;;
79261;SDS011;68699;48.220;16.358;2024-02-16T07:52:49;9.33;;;8.33;;
79261;SDS011;68699;48.220;16.358;2024-02-16T07:55:16;9.20;;;8.17;;
79261;SDS011;68699;48.220;16.358;2024-02-16T07:57:49;9.10;;;7.93;;
79261;SDS011;68699;48.220;16.358;2024-02-16T08:00:16;8.00;;;7.20;;
79261;SDS011;68699;48.220;16.358;2024-02-16T08:02:42;8.80;;;7.90;;
79261;SDS011;68699;48.220;16.358;2024-02-16T08:05:09;8.20;;;7.37;;
79261;SDS011;68699;48.220;16.358;2024-02-16T08:07:37;9.00;;;7.53;;
79261;SDS011;68699;48.220;16.358;2024-02-16T08:10:03;8.47;;;7.37;;
79261;SDS011;68699;48.220;16.358;2024-02-16T08:12:30;9.70;;;7.43;;
79261;SDS011;68699;48.220;16.358;2024-02-16T08:14:57;8.23;;;7.43;;
79261;SDS011;68699;48.220;16.358;2024-02-16T08:17:23;10.30;;;8.20;;
79261;SDS011;68699;48.220;16.358;2024-02-16T08:19:53;9.20;;;7.10;;
79261;SDS011;68699;48.220;16.358;2024-02-16T08:22:20;8.70;;;7.27;;
79261;SDS011;68699;48.220;16.358;2024-02-16T08:24:46;9.67;;;7.93;;
79261;SDS011;68699;48.220;16.358;2024-02-16T08:27:14;8.50;;;7.57;;
79261;SDS011;68699;48.220;16.358;2024-02-16T08:29:41;11.07;;;7.50;;
79261;SDS011;68699;48.220;16.358;2024-02-16T08:32:07;8.87;;;7.53;;
79261;SDS011;68699;48.220;16.358;2024-02-16T08:34:34;11.20;;;7.60;;
79261;SDS011;68699;48.220;16.358;2024-02-16T08:37:02;11.17;;;7.80;;
79261;SDS011;68699;48.220;16.358;2024-02-16T08:39:32;9.03;;;7.20;;
79261;SDS011;68699;48.220;16.358;2024-02-16T08:42:01;9.50;;;7.67;;
79261;SDS011;68699;48.220;16.358;2024-02-16T08:44:28;8.30;;;7.40;;
79261;SDS011;68699;48.220;16.358;2024-02-16T08:46:54;7.90;;;7.10;;
79261;SDS011;68699;48.220;16.358;2024-02-16T08:49:21;10.67;;;7.33;;
79261;SDS011;68699;48.220;16.358;2024-02-16T08:51:48;9.70;;;6.70;;
79261;SDS011;68699;48.220;16.358;2024-02-16T08:54:14;13.73;;;7.57;;
79261;SDS011;68699;48.220;16.358;2024-02-16T08:56:42;9.20;;;6.20;;
79261;SDS011;68699;48.220;16.358;2024-02-16T08:59:08;7.73;;;6.63;;
79261;SDS011;68699;48.220;16.358;2024-02-16T09:01:36;9.33;;;6.87;;
79261;SDS011;68699;48.220;16.358;2024-02-16T09:04:02;7.30;;;6.50;;
79261;SDS011;68699;48.220;16.358;2024-02-16T09:06:29;6.77;;;6.10;;
79261;SDS011;68699;48.220;16.358;2024-02-16T09:08:56;9.13;;;7.40;;
79261;SDS011;68699;48.220;16.358;2024-02-16T09:11:22;14.00;;;8.07;;
79261;SDS011;68699;48.220;16.358;2024-02-16T09:13:49;6.83;;;6.03;;
79261;SDS011;68699;48.220;16.358;2024-02-16T09:16:15;7.93;;;6.40;;
79261;SDS011;68699;48.220;16.358;2024-02-16T09:18:41;6.30;;;5.70;;
79261;SDS011;68699;48.220;16.358;2024-02-16T09:21:08;6.27;;;5.63;;
79261;SDS011;68699;48.220;16.358;2024-02-16T09:23:36;12.07;;;6.27;;
79261;SDS011;68699;48.220;16.358;2024-02-16T09:26:02;6.73;;;6.07;;
79261;SDS011;68699;48.220;16.358;2024-02-16T09:28:28;6.73;;;5.77;;
79261;SDS011;68699;48.220;16.358;2024-02-16T09:30:58;6.57;;;5.97;;
79261;SDS011;68699;48.220;16.358;2024-02-16T09:33:24;5.93;;;5.30;;
79261;SDS011;68699;48.220;16.358;2024-02-16T09:35:52;6.23;;;5.43;;
79261;SDS011;68699;48.220;16.358;2024-02-16T09:38:18;6.40;;;4.97;;
79261;SDS011;68699;48.220;16.358;2024-02-16T09:40:45;6.50;;;4.77;;
79261;SDS011;68699;48.220;16.358;2024-02-16T09:43:22;5.87;;;5.30;;
79261;SDS011;68699;48.220;16.358;2024-02-16T09:45:51;6.60;;;4.87;;
79261;SDS011;68699;48.220;16.358;2024-02-16T09:48:18;6.87;;;5.00;;
79261;SDS011;68699;48.220;16.358;2024-02-16T09:50:45;6.67;;;5.10;;
79261;SDS011;68699;48.220;16.358;2024-02-16T09:53:11;5.03;;;4.60;;
79261;SDS011;68699;48.220;16.358;2024-02-16T09:55:37;5.83;;;4.20;;
79261;SDS011;68699;48.220;16.358;2024-02-16T09:58:04;5.43;;;4.07;;
79261;SDS011;68699;48.220;16.358;2024-02-16T10:00:31;4.33;;;3.93;;
79261;SDS011;68699;48.220;16.358;2024-02-16T10:02:57;5.43;;;3.27;;
79261;SDS011;68699;48.220;16.358;2024-02-16T10:05:23;4.00;;;3.10;;
79261;SDS011;68699;48.220;16.358;2024-02-16T10:07:50;4.03;;;2.97;;
79261;SDS011;68699;48.220;16.358;2024-02-16T10:10:23;3.20;;;2.90;;
79261;SDS011;68699;48.220;16.358;2024-02-16T10:12:50;3.10;;;2.80;;
79261;SDS011;68699;48.220;16.358;2024-02-16T10:15:20;2.70;;;2.50;;
79261;SDS011;68699;48.220;16.358;2024-02-16T10:17:59;2.93;;;2.73;;
79261;SDS011;68699;48.220;16.358;2024-02-16T10:20:25;2.50;;;2.30;;
79261;SDS011;68699;48.220;16.358;2024-02-16T10:23:10;3.23;;;2.50;;
79261;SDS011;68699;48.220;16.358;2024-02-16T10:25:37;4.73;;;2.30;;
79261;SDS011;68699;48.220;16.358;2024-02-16T10:28:06;5.13;;;2.77;;
79261;SDS011;68699;48.220;16.358;2024-02-16T10:30:36;3.67;;;2.40;;
79261;SDS011;68699;48.220;16.358;2024-02-16T10:33:04;2.80;;;2.37;;
79261;SDS011;68699;48.220;16.358;2024-02-16T10:35:30;4.67;;;2.53;;
79261;SDS011;68699;48.220;16.358;2024-02-16T10:37:58;3.67;;;2.30;;
79261;SDS011;68699;48.220;16.358;2024-02-16T10:40:27;2.50;;;2.30;;
79261;SDS011;68699;48.220;16.358;2024-02-16T10:42:54;3.47;;;2.47;;
79261;SDS011;68699;48.220;16.358;2024-02-16T10:45:20;2.40;;;2.20;;
79261;SDS011;68699;48.220;16.358;2024-02-16T10:47:47;3.70;;;2.43;;
79261;SDS011;68699;48.220;16.358;2024-02-16T10:50:16;2.23;;;2.03;;
79261;SDS011;68699;48.220;16.358;2024-02-16T10:52:43;2.30;;;1.90;;
79261;SDS011;68699;48.220;16.358;2024-02-16T10:55:10;2.33;;;2.13;;
79261;SDS011;68699;48.220;16.358;2024-02-16T10:57:38;2.60;;;2.40;;
79261;SDS011;68699;48.220;16.358;2024-02-16T11:00:08;4.27;;;2.37;;
79261;SDS011;68699;48.220;16.358;2024-02-16T11:02:54;3.47;;;2.30;;
79261;SDS011;68699;48.220;16.358;2024-02-16T11:05:34;2.50;;;2.30;;
79261;SDS011;68699;48.220;16.358;2024-02-16T11:08:02;2.47;;;2.13;;
79261;SDS011;68699;48.220;16.358;2024-02-16T11:10:28;1.93;;;1.83;;
79261;SDS011;68699;48.220;16.358;2024-02-16T11:12:54;3.57;;;2.10;;
79261;SDS011;68699;48.220;16.358;2024-02-16T11:15:28;4.20;;;2.43;;
79261;SDS011;68699;48.220;16.358;2024-02-16T11:17:57;3.30;;;2.40;;
79261;SDS011;68699;48.220;16.358;2024-02-16T11:20:24;2.63;;;2.43;;
79261;SDS011;68699;48.220;16.358;2024-02-16T11:23:04;4.30;;;2.20;;
79261;SDS011;68699;48.220;16.358;2024-02-16T11:25:31;2.77;;;2.40;;
79261;SDS011;68699;48.220;16.358;2024-02-16T11:27:58;2.27;;;2.07;;
79261;SDS011;68699;48.220;16.358;2024-02-16T11:30:24;2.83;;;2.40;;
79261;SDS011;68699;48.220;16.358;2024-02-16T11:32:51;3.30;;;2.40;;
79261;SDS011;68699;48.220;16.358;2024-02-16T11:35:17;3.03;;;2.63;;
79261;SDS011;68699;48.220;16.358;2024-02-16T11:37:44;2.17;;;1.97;;
79261;SDS011;68699;48.220;16.358;2024-02-16T11:40:13;2.53;;;2.00;;
79261;SDS011;68699;48.220;16.358;2024-02-16T11:42:39;2.63;;;2.20;;
79261;SDS011;68699;48.220;16.358;2024-02-16T11:45:09;2.13;;;1.93;;
79261;SDS011;68699;48.220;16.358;2024-02-16T11:47:37;4.20;;;2.40;;
79261;SDS011;68699;48.220;16.358;2024-02-16T11:50:07;2.40;;;2.20;;
79261;SDS011;68699;48.220;16.358;2024-02-16T11:52:39;2.57;;;2.20;;
79261;SDS011;68699;48.220;16.358;2024-02-16T11:55:08;4.03;;;1.93;;
79261;SDS011;68699;48.220;16.358;2024-02-16T11:57:36;2.23;;;2.03;;
79261;SDS011;68699;48.220;16.358;2024-02-16T12:00:05;2.57;;;2.10;;
79261;SDS011;68699;48.220;16.358;2024-02-16T12:02:39;1.93;;;1.83;;
79261;SDS011;68699;48.220;16.358;2024-02-16T12:05:06;2.20;;;2.00;;
79261;SDS011;68699;48.220;16.358;2024-02-16T12:07:33;5.20;;;2.27;;
79261;SDS011;68699;48.220;16.358;2024-02-16T12:09:59;1.80;;;1.70;;
79261;SDS011;68699;48.220;16.358;2024-02-16T12:12:27;2.20;;;2.10;;
79261;SDS011;68699;48.220;16.358;2024-02-16T12:14:53;6.77;;;2.30;;
79261;SDS011;68699;48.220;16.358;2024-02-16T12:17:20;1.73;;;1.63;;
79261;SDS011;68699;48.220;16.358;2024-02-16T12:19:46;1.63;;;1.50;;
79261;SDS011;68699;48.220;16.358;2024-02-16T12:22:22;1.70;;;1.60;;
79261;SDS011;68699;48.220;16.358;2024-02-16T12:24:49;1.93;;;1.70;;
79261;SDS011;68699;48.220;16.358;2024-02-16T12:27:16;2.67;;;1.70;;
79261;SDS011;68699;48.220;16.358;2024-02-16T12:29:42;1.90;;;1.70;;
79261;SDS011;68699;48.220;16.358;2024-02-16T12:32:08;1.70;;;1.60;;
79261;SDS011;68699;48.220;16.358;2024-02-16T12:34:37;2.03;;;1.80;;
79261;SDS011;68699;48.220;16.358;2024-02-16T12:37:04;3.37;;;1.87;;
79261;SDS011;68699;48.220;16.358;2024-02-16T12:39:32;1.80;;;1.70;;
79261;SDS011;68699;48.220;16.358;2024-02-16T12:41:59;2.83;;;1.90;;
79261;SDS011;68699;48.220;16.358;2024-02-16T12:44:25;2.00;;;1.90;;
79261;SDS011;68699;48.220;16.358;2024-02-16T12:46:51;2.43;;;2.23;;
79261;SDS011;68699;48.220;16.358;2024-02-16T12:49:17;2.03;;;1.93;;
79261;SDS011;68699;48.220;16.358;2024-02-16T12:51:47;2.30;;;2.10;;
79261;SDS011;68699;48.220;16.358;2024-02-16T12:54:13;3.10;;;1.90;;
79261;SDS011;68699;48.220;16.358;2024-02-16T12:56:44;2.80;;;2.07;;
79261;SDS011;68699;48.220;16.358;2024-02-16T12:59:10;2.03;;;1.90;;
79261;SDS011;68699;48.220;16.358;2024-02-16T13:01:36;2.80;;;2.17;;
79261;SDS011;68699;48.220;16.358;2024-02-16T13:04:02;2.10;;;1.90;;
79261;SDS011;68699;48.220;16.358;2024-02-16T13:06:30;2.77;;;2.10;;
79261;SDS011;68699;48.220;16.358;2024-02-16T13:08:57;2.03;;;1.90;;
79261;SDS011;68699;48.220;16.358;2024-02-16T13:11:23;3.07;;;2.57;;
79261;SDS011;68699;48.220;16.358;2024-02-16T13:13:49;2.00;;;1.90;;
79261;SDS011;68699;48.220;16.358;2024-02-16T13:16:16;2.77;;;2.30;;
79261;SDS011;68699;48.220;16.358;2024-02-16T13:18:42;2.40;;;2.20;;
79261;SDS011;68699;48.220;16.358;2024-02-16T13:21:08;2.37;;;2.27;;
79261;SDS011;68699;48.220;16.358;2024-02-16T13:23:34;2.73;;;2.40;;
79261;SDS011;68699;48.220;16.358;2024-02-16T13:26:01;2.50;;;2.30;;
79261;SDS011;68699;48.220;16.358;2024-02-16T13:28:27;2.40;;;2.20;;
79261;SDS011;68699;48.220;16.358;2024-02-16T13:30:53;4.60;;;2.60;;
79261;SDS011;68699;48.220;16.358;2024-02-16T13:33:19;3.33;;;2.40;;
79261;SDS011;68699;48.220;16.358;2024-02-16T13:35:46;2.30;;;2.10;;
79261;SDS011;68699;48.220;16.358;2024-02-16T13:38:12;2.70;;;2.23;;
79261;SDS011;68699;48.220;16.358;2024-02-16T13:40:39;2.67;;;2.30;;
79261;SDS011;68699;48.220;16.358;2024-02-16T13:43:05;2.70;;;2.50;;
79261;SDS011;68699;48.220;16.358;2024-02-16T13:45:47;2.53;;;2.33;;
79261;SDS011;68699;48.220;16.358;2024-02-16T13:48:13;3.47;;;2.47;;
79261;SDS011;68699;48.220;16.358;2024-02-16T13:50:40;2.70;;;2.50;;
79261;SDS011;68699;48.220;16.358;2024-02-16T13:53:06;2.83;;;2.53;;
79261;SDS011;68699;48.220;16.358;2024-02-16T13:55:32;2.50;;;2.30;;
79261;SDS011;68699;48.220;16.358;2024-02-16T13:57:58;4.13;;;2.73;;
79261;SDS011;68699;48.220;16.358;2024-02-16T14:00:24;2.57;;;2.30;;
79261;SDS011;68699;48.220;16.358;2024-02-16T14:02:51;3.10;;;2.30;;
79261;SDS011;68699;48.220;16.358;2024-02-16T14:05:17;2.90;;;2.40;;
79261;SDS011;68699;48.220;16.358;2024-02-16T14:07:43;2.77;;;2.20;;
79261;SDS011;68699;48.220;16.358;2024-02-16T14:10:09;2.50;;;2.30;;
79261;SDS011;68699;48.220;16.358;2024-02-16T14:12:35;3.20;;;2.37;;
79261;SDS011;68699;48.220;16.358;2024-02-16T14:15:02;3.17;;;2.47;;
79261;SDS011;68699;48.220;16.358;2024-02-16T14:17:28;4.47;;;2.23;;
79261;SDS011;68699;48.220;16.358;2024-02-16T14:19:54;2.50;;;2.30;;
79261;SDS011;68699;48.220;16.358;2024-02-16T14:22:20;2.57;;;2.30;;